createdAt,value
2019-05-29T00:04:55.438Z,97832.70
2019-05-29T00:10:18.409Z,97829.91
2019-05-29T00:15:40.582Z,97837.19
2019-05-29T00:21:02.382Z,97833.05
2019-05-29T00:26:23.863Z,97834.08
2019-05-29T00:31:45.385Z,97828.03
2019-05-29T00:37:06.866Z,97827.88
2019-05-29T00:42:28.696Z,97758.71
2019-05-29T00:47:50.150Z,97830.87
2019-05-29T00:53:12.213Z,97832.58
2019-05-29T00:58:34.210Z,97852.73
2019-05-29T01:03:55.789Z,97844.48
2019-05-29T01:09:17.248Z,97856.77
2019-05-29T01:14:49.742Z,97854.48
2019-05-29T01:20:03.050Z,97864.47
2019-05-29T01:25:24.584Z,97870.45
2019-05-29T01:30:46.399Z,97876.61
2019-05-29T01:36:08.170Z,97893.80
2019-05-29T01:41:29.495Z,97888.20
2019-05-29T01:46:51.279Z,97884.51
2019-05-29T01:52:12.875Z,97891.48
2019-05-29T01:57:34.373Z,97899.36
2019-05-29T02:02:55.951Z,97899.00
2019-05-29T02:08:18.062Z,97913.02
2019-05-29T02:13:39.969Z,97915.19
2019-05-29T02:19:01.705Z,97923.70
2019-05-29T02:24:23.522Z,97937.91
2019-05-29T02:29:44.995Z,97936.42
2019-05-29T02:35:07.013Z,97928.59
2019-05-29T02:40:30.063Z,97925.61
2019-05-29T02:45:54.776Z,97917.25
2019-05-29T02:51:15.707Z,97926.09
2019-05-29T02:56:37.005Z,97928.93
2019-05-29T03:01:59.166Z,97932.11
2019-05-29T03:07:22.200Z,97941.59
2019-05-29T03:12:43.960Z,97926.45
2019-05-29T03:18:05.865Z,97930.42
2019-05-29T03:23:29.123Z,97941.77
2019-05-29T03:28:51.362Z,97930.09
2019-05-29T03:34:13.067Z,97939.61
2019-05-29T03:39:34.724Z,97942.44
2019-05-29T03:44:56.482Z,97948.59
2019-05-29T03:50:26.491Z,97951.72
2019-05-29T03:55:49.698Z,97951.09
2019-05-29T04:01:11.245Z,97961.26
2019-05-29T04:06:33.417Z,97956.25
2019-05-29T04:11:55.545Z,97978.23
2019-05-29T04:17:19.380Z,97977.21
2019-05-29T04:22:43.747Z,97977.34
2019-05-29T04:28:07.710Z,97977.35
2019-05-29T04:33:30.550Z,97988.95
2019-05-29T04:38:53.278Z,97987.34
2019-05-29T04:44:14.810Z,98006.47
2019-05-29T04:49:37.870Z,97998.36
2019-05-29T04:54:59.783Z,98014.16
2019-05-29T05:00:21.386Z,97997.38
2019-05-29T05:05:43.123Z,97980.13
2019-05-29T05:11:05.088Z,97982.97
2019-05-29T05:16:26.685Z,97987.94
2019-05-29T05:21:48.155Z,97994.86
2019-05-29T05:27:09.773Z,97997.20
2019-05-29T05:32:32.639Z,98001.47
2019-05-29T05:37:54.926Z,98010.06
2019-05-29T05:43:24.060Z,98000.72
2019-05-29T05:48:41.610Z,98011.44
2019-05-29T05:54:03.533Z,98003.34
2019-05-29T05:59:25.198Z,98001.63
2019-05-29T06:04:46.655Z,98001.83
2019-05-29T06:10:08.903Z,98006.15
2019-05-29T06:15:32.254Z,98005.06
2019-05-29T06:20:54.010Z,98015.42
2019-05-29T06:26:15.841Z,98016.48
2019-05-29T06:31:37.506Z,98021.41
2019-05-29T06:36:59.237Z,98021.50
2019-05-29T06:42:21.154Z,98040.56
2019-05-29T06:47:44.602Z,98035.66
2019-05-29T06:53:06.380Z,98037.85
2019-05-29T06:58:28.029Z,98039.09
2019-05-29T07:03:50.241Z,98024.82
2019-05-29T07:09:12.371Z,98031.47
2019-05-29T07:14:33.749Z,98035.01
2019-05-29T07:20:03.140Z,98039.75
2019-05-29T07:25:19.058Z,98036.82
2019-05-29T07:30:44.164Z,98031.53
2019-05-29T07:36:04.774Z,98036.23
2019-05-29T07:41:27.182Z,98035.58
2019-05-29T07:46:49.428Z,98035.89
2019-05-29T07:52:11.542Z,98037.84
2019-05-29T07:57:33.314Z,98041.66
2019-05-29T08:02:54.897Z,98043.24
2019-05-29T08:08:16.580Z,98045.02
2019-05-29T08:13:39.418Z,98062.06
2019-05-29T08:19:01.238Z,98059.81
2019-05-29T08:24:24.850Z,98065.33
2019-05-29T08:29:47.155Z,98067.52
2019-05-29T08:35:09.981Z,98072.29
2019-05-29T08:40:31.555Z,98068.06
2019-05-29T08:45:53.478Z,98078.77
2019-05-29T08:51:14.914Z,98076.23
2019-05-29T08:56:36.881Z,98082.72
2019-05-29T09:01:58.401Z,98089.47
2019-05-29T09:07:20.120Z,98080.98
2019-05-29T09:12:41.523Z,98077.75
2019-05-29T09:18:03.256Z,98080.45
2019-05-29T09:23:26.366Z,98077.12
2019-05-29T09:28:47.996Z,98086.30
2019-05-29T09:34:09.407Z,98075.45
2019-05-29T09:39:31.165Z,98075.28
2019-05-29T09:44:52.901Z,98070.92
2019-05-29T09:50:15.605Z,98057.18
2019-05-29T09:55:37.973Z,98066.56
2019-05-29T10:01:18.609Z,98077.77
2019-05-29T10:06:23.990Z,98071.38
2019-05-29T10:11:45.281Z,98069.62
2019-05-29T10:17:11.848Z,98074.31
2019-05-29T10:22:31.060Z,98065.73
2019-05-29T10:27:52.965Z,98054.70
2019-05-29T10:33:14.985Z,98056.61
2019-05-29T10:38:36.454Z,98052.73
2019-05-29T10:43:58.030Z,98050.72
2019-05-29T10:49:19.778Z,98044.27
2019-05-29T10:54:41.496Z,98050.26
2019-05-29T11:00:03.149Z,98046.26
2019-05-29T11:05:24.840Z,98050.35
2019-05-29T11:10:47.909Z,98052.00
2019-05-29T11:16:09.584Z,98053.98
2019-05-29T11:21:31.300Z,98033.13
2019-05-29T11:26:54.667Z,98042.63
2019-05-29T11:32:16.190Z,98027.63
2019-05-29T11:37:37.931Z,98024.41
2019-05-29T11:42:59.703Z,98020.25
2019-05-29T11:48:21.190Z,98022.39
2019-05-29T11:53:42.613Z,98021.75
2019-05-29T11:59:05.031Z,98019.23
2019-05-29T12:04:27.117Z,98020.53
2019-05-29T12:09:49.131Z,98007.05
2019-05-29T12:15:15.993Z,98007.48
2019-05-29T12:20:35.170Z,98002.50
2019-05-29T12:26:16.641Z,98001.31
2019-05-29T12:31:20.610Z,98002.47
2019-05-29T12:36:42.327Z,97990.37
2019-05-29T12:42:04.458Z,97989.59
2019-05-29T12:47:26.044Z,97983.11
2019-05-29T12:52:48.150Z,97978.32
2019-05-29T12:58:09.884Z,97984.50
2019-05-29T13:03:31.690Z,97981.14
2019-05-29T13:08:54.575Z,97977.73
2019-05-29T13:14:16.456Z,97978.64
2019-05-29T13:19:38.168Z,97977.79
2019-05-29T13:24:59.791Z,97976.81
2019-05-29T13:30:21.847Z,97968.27
2019-05-29T13:35:43.497Z,97967.27
2019-05-29T13:41:06.499Z,97963.86
2019-05-29T13:46:30.077Z,97962.09
2019-05-29T13:51:51.984Z,97958.27
2019-05-29T13:57:13.495Z,97965.17
2019-05-29T14:02:35.386Z,97950.73
2019-05-29T14:07:56.925Z,97959.80
2019-05-29T14:13:18.584Z,97951.84
2019-05-29T14:18:40.113Z,97960.09
2019-05-29T14:24:07.364Z,97964.76
2019-05-29T14:29:26.035Z,97965.46
2019-05-29T14:34:49.219Z,97964.66
2019-05-29T14:40:12.295Z,97961.25
2019-05-29T14:45:33.657Z,97963.95
2019-05-29T14:50:55.516Z,97952.52
2019-05-29T14:56:17.169Z,97947.36
2019-05-29T15:01:38.995Z,97957.83
2019-05-29T15:07:00.780Z,97938.55
2019-05-29T15:12:22.370Z,97940.96
2019-05-29T15:17:44.299Z,97936.33
2019-05-29T15:23:07.509Z,97939.95
2019-05-29T15:28:30.664Z,97939.45
2019-05-29T15:33:52.643Z,97929.56
2019-05-29T15:39:17.823Z,97937.45
2019-05-29T15:45:18.172Z,97940.12
2019-05-29T15:50:41.615Z,97946.33
2019-05-29T15:56:18.036Z,97955.98
2019-05-29T16:01:27.214Z,97963.08
2019-05-29T16:06:49.248Z,97961.33
2019-05-29T16:12:10.713Z,97968.48
2019-05-29T16:17:32.860Z,97978.50
2019-05-29T16:22:54.897Z,97976.98
2019-05-29T16:28:17.245Z,97985.16
2019-05-29T16:33:38.900Z,97995.48
2019-05-29T16:39:00.760Z,97994.88
2019-05-29T16:44:27.322Z,97993.81
2019-05-29T16:49:45.909Z,97995.50
2019-05-29T16:55:07.832Z,97997.98
2019-05-29T17:00:29.766Z,97997.03
2019-05-29T17:05:51.131Z,97994.55
2019-05-29T17:11:12.731Z,98006.30
2019-05-29T17:16:34.176Z,98017.03
2019-05-29T17:21:56.052Z,98012.07
2019-05-29T17:27:18.722Z,97999.10
2019-05-29T17:32:43.588Z,98009.09
2019-05-29T17:38:05.056Z,98007.96
2019-05-29T17:43:28.632Z,98009.12
2019-05-29T17:48:50.111Z,98012.78
2019-05-29T17:54:11.970Z,98029.14
2019-05-29T17:59:33.818Z,98034.07
2019-05-29T18:04:55.826Z,98031.28
2019-05-29T18:10:19.381Z,98040.44
2019-05-29T18:15:42.043Z,98045.55
2019-05-29T18:21:03.757Z,98051.26
2019-05-29T18:26:27.455Z,98056.09
2019-05-29T18:31:49.300Z,98067.56
2019-05-29T18:37:11.847Z,98087.22
2019-05-29T18:42:33.786Z,98092.63
2019-05-29T18:47:55.353Z,98094.27
2019-05-29T18:53:16.846Z,98110.60
2019-05-29T18:58:38.721Z,98113.20
2019-05-29T19:04:00.504Z,98123.52
2019-05-29T19:09:29.797Z,98131.72
2019-05-29T19:15:26.064Z,98128.47
2019-05-29T19:20:43.784Z,98134.78
2019-05-29T19:26:05.579Z,98147.55
2019-05-29T19:31:29.037Z,98144.22
2019-05-29T19:36:51.186Z,98146.40
2019-05-29T19:42:13.346Z,98148.23
2019-05-29T19:47:35.566Z,98156.41
2019-05-29T19:52:56.886Z,98171.92
2019-05-29T19:58:18.688Z,98169.74
2019-05-29T20:03:40.101Z,98179.31
2019-05-29T20:09:01.697Z,98186.84
2019-05-29T20:14:23.353Z,98176.65
2019-05-29T20:19:45.185Z,98170.57
2019-05-29T20:25:07.592Z,98176.15
2019-05-29T20:30:30.277Z,98173.36
2019-05-29T20:35:51.977Z,98181.91
2019-05-29T20:41:13.598Z,98185.59
2019-05-29T20:46:35.153Z,98180.48
2019-05-29T20:51:56.932Z,98182.38
2019-05-29T20:57:18.995Z,98190.18
2019-05-29T21:02:42.329Z,98200.23
2019-05-29T21:08:04.381Z,98209.05
2019-05-29T21:13:26.199Z,98207.60
2019-05-29T21:18:47.579Z,98206.61
2019-05-29T21:24:09.358Z,98209.67
2019-05-29T21:29:31.112Z,98208.61
2019-05-29T21:34:53.105Z,98203.25
2019-05-29T21:40:15.354Z,98210.03
2019-05-29T21:45:36.851Z,98201.89
2019-05-29T21:50:58.479Z,98202.07
2019-05-29T21:56:20.333Z,98200.69
2019-05-29T22:01:42.119Z,98192.23
2019-05-29T22:07:04.366Z,98190.76
2019-05-29T22:12:25.815Z,98187.13
2019-05-29T22:17:47.500Z,98187.53
2019-05-29T22:23:09.236Z,98185.36
2019-05-29T22:28:31.213Z,98189.17
2019-05-29T22:33:53.385Z,98172.50
2019-05-29T22:39:15.239Z,98179.52
2019-05-29T22:44:36.756Z,98186.03
2019-05-29T22:49:59.634Z,98197.73
2019-05-29T22:55:21.761Z,98197.73
2019-05-29T23:00:43.629Z,98198.44
2019-05-29T23:06:05.338Z,98192.88
2019-05-29T23:11:27.129Z,98195.34
2019-05-29T23:16:48.980Z,98194.56
2019-05-29T23:22:10.347Z,98187.74
2019-05-29T23:27:32.307Z,98193.94
2019-05-29T23:32:54.882Z,98213.77
2019-05-29T23:38:16.550Z,98214.80
2019-05-29T23:43:38.117Z,98206.83
2019-05-29T23:48:59.741Z,98201.63
2019-05-29T23:54:21.298Z,98206.64
2019-05-29T23:59:42.866Z,98202.52
